Time;durP1;ratioP1;P1;durP2;ratioP2;P2;SDS_P1;SDS_P2;PMS_P1;PMS_P2;Temp;Humidity;BMP_temperature;BMP_pressure;BME280_temperature;BME280_humidity;BME280_pressure;Samples;Min_cycle;Max_cycle;Signal;HPM_P1;HPM_P2
2023/01/20 00:01:34;;;;;;;;;36.50;24.75;;;;;4.27;75.11;100981.84;5079386;27;45307;-48
2023/01/20 00:03:59;;;;;;;;;34.75;26.50;;;;;4.27;75.29;100987.13;5097784;27;45303;-45
2023/01/20 00:06:28;;;;;;;;;41.50;26.00;;;;;4.23;74.94;100983.84;5097793;27;45332;-45
2023/01/20 00:08:56;;;;;;;;;41.50;35.75;;;;;4.22;75.19;100986.59;5097273;27;46232;-48
2023/01/20 00:11:22;;;;;;;;;45.75;30.00;;;;;4.12;75.36;100972.31;5097638;27;45517;-46
2023/01/20 00:13:47;;;;;;;;;30.25;23.50;;;;;4.19;75.27;100984.16;5097520;27;45351;-47
2023/01/20 00:16:13;;;;;;;;;18.75;18.00;;;;;4.22;75.07;100992.69;5097477;27;45388;-48
2023/01/20 00:18:39;;;;;;;;;21.50;17.00;;;;;4.22;74.56;100997.13;5097614;27;45827;-49
2023/01/20 00:21:08;;;;;;;;;20.75;16.50;;;;;4.08;74.41;100981.34;5097259;27;45332;-46
2023/01/20 00:23:33;;;;;;;;;23.25;17.00;;;;;4.14;74.04;101005.50;5097313;27;45383;-46
2023/01/20 00:26:03;;;;;;;;;32.00;17.25;;;;;4.08;75.04;101008.53;5097456;27;45398;-45
2023/01/20 00:28:28;;;;;;;;;27.50;19.75;;;;;3.99;74.43;101009.13;5097025;27;46002;-47
2023/01/20 00:30:53;;;;;;;;;25.00;24.00;;;;;3.94;74.66;101019.09;5097104;27;46845;-45
2023/01/20 00:33:19;;;;;;;;;21.50;18.00;;;;;3.95;74.21;101028.69;5096975;27;45396;-44
2023/01/20 00:35:44;;;;;;;;;25.50;22.25;;;;;3.91;74.28;101021.91;5096639;27;45294;-44
2023/01/20 00:38:09;;;;;;;;;33.50;20.75;;;;;3.93;75.10;101036.69;5096962;27;46599;-46
2023/01/20 00:40:35;;;;;;;;;26.50;20.50;;;;;3.97;74.91;101037.34;5097049;27;45500;-46
2023/01/20 00:43:00;;;;;;;;;26.75;20.00;;;;;3.97;74.07;101037.34;5097144;27;45319;-46
2023/01/20 00:45:25;;;;;;;;;23.75;19.25;;;;;4.01;75.15;101046.72;5078784;27;45289;-46
2023/01/20 00:47:51;;;;;;;;;22.75;20.50;;;;;4.01;74.39;101044.09;5096988;27;47807;-48
2023/01/20 00:50:16;;;;;;;;;25.25;20.50;;;;;4.02;74.39;101051.03;5096603;27;53410;-46
2023/01/20 00:52:41;;;;;;;;;29.25;21.25;;;;;3.99;75.34;101043.34;5097170;27;45312;-46
2023/01/20 00:55:07;;;;;;;;;23.00;20.00;;;;;4.00;75.18;101048.53;5097197;27;45474;-47
2023/01/20 00:57:32;;;;;;;;;22.75;18.25;;;;;4.03;74.93;101052.72;5096911;27;46874;-45
2023/01/20 00:59:57;;;;;;;;;28.00;20.75;;;;;4.03;74.88;101055.34;5097045;27;45333;-45
2023/01/20 01:02:23;;;;;;;;;16.00;13.75;;;;;4.00;73.99;101052.91;5097037;27;45436;-46
2023/01/20 01:04:49;;;;;;;;;19.50;18.00;;;;;3.96;74.48;101056.69;5096982;27;45427;-45
2023/01/20 01:07:15;;;;;;;;;21.25;17.75;;;;;3.88;74.18;101049.28;5096616;27;47064;-46
2023/01/20 01:09:41;;;;;;;;;25.50;21.00;;;;;3.88;74.99;101054.56;5096714;27;45394;-45
2023/01/20 01:12:06;;;;;;;;;21.50;14.00;;;;;3.85;74.97;101052.09;5096720;27;45414;-45
2023/01/20 01:14:32;;;;;;;;;26.75;22.00;;;;;3.81;75.51;101060.28;5096646;27;45406;-46
2023/01/20 01:16:57;;;;;;;;;28.25;19.00;;;;;3.75;74.89;101057.09;5096194;27;46308;-47
2023/01/20 01:19:22;;;;;;;;;30.50;19.00;;;;;3.72;75.56;101064.34;5096615;27;45240;-46
2023/01/20 01:21:48;;;;;;;;;19.25;17.00;;;;;3.69;75.71;101069.78;5078291;27;45489;-46
2023/01/20 01:24:13;;;;;;;;;30.25;23.00;;;;;3.65;75.85;101078.81;5096768;27;45439;-47
2023/01/20 01:26:38;;;;;;;;;24.25;22.25;;;;;3.66;75.43;101080.47;5096393;27;45915;-47
2023/01/20 01:29:04;;;;;;;;;30.50;21.25;;;;;3.65;75.85;101084.06;5096432;27;45333;-46
2023/01/20 01:31:29;;;;;;;;;19.25;18.00;;;;;3.62;75.95;101082.44;5096715;27;45592;-45
2023/01/20 01:33:54;;;;;;;;;27.50;21.25;;;;;3.56;75.70;101084.63;5096637;27;45434;-45
2023/01/20 01:36:20;;;;;;;;;26.00;21.50;;;;;3.48;76.30;101085.94;5095919;27;46015;-45
2023/01/20 01:38:45;;;;;;;;;22.25;17.25;;;;;3.44;76.55;101094.09;5096291;27;45470;-46
2023/01/20 01:41:13;;;;;;;;;27.75;22.50;;;;;3.42;77.17;101096.84;5096238;27;45263;-45
2023/01/20 01:43:58;;;;;;;;;26.75;22.25;;;;;3.49;76.13;101110.44;5096661;27;45419;-47
2023/01/20 01:46:23;;;;;;;;;26.50;17.75;;;;;3.54;76.46;101112.78;5096600;27;45704;-45
2023/01/20 01:48:49;;;;;;;;;29.00;20.50;;;;;3.66;75.52;101125.22;5099136;27;45482;-46
2023/01/20 01:51:21;;;;;;;;;25.25;19.25;;;;;3.55;76.23;101099.56;5100133;27;45427;-44
2023/01/20 01:53:52;;;;;;;;;23.50;18.00;;;;;3.71;75.07;101124.00;5099916;27;45418;-44
2023/01/20 01:56:20;;;;;;;;;28.75;21.00;;;;;3.67;75.67;101132.19;5099778;27;47156;-46
2023/01/20 01:58:49;;;;;;;;;30.00;23.25;;;;;3.62;75.35;101135.06;5098164;27;45472;-45
2023/01/20 02:01:15;;;;;;;;;27.75;19.75;;;;;3.48;75.37;101116.66;5099566;27;45816;-49
2023/01/20 02:03:48;;;;;;;;;30.00;20.25;;;;;3.60;74.80;101131.69;5099691;27;45341;-47
2023/01/20 02:06:15;;;;;;;;;33.50;20.50;;;;;3.59;74.94;101132.66;5099478;27;45475;-46
2023/01/20 02:08:41;;;;;;;;;26.50;19.00;;;;;3.53;74.96;101146.16;5099435;27;45436;-47
2023/01/20 02:11:06;;;;;;;;;24.75;19.75;;;;;3.35;75.47;101123.59;5099512;27;45403;-46
2023/01/20 02:13:32;;;;;;;;;26.50;22.75;;;;;3.42;74.91;101148.59;5099840;27;45394;-45
2023/01/20 02:16:14;;;;;;;;;26.25;22.00;;;;;3.33;75.81;101152.59;5099224;27;45379;-47
2023/01/20 02:18:48;;;;;;;;;27.75;21.75;;;;;3.28;75.02;101153.78;5098242;27;45398;-46
2023/01/20 02:21:31;;;;;;;;;37.75;24.75;;;;;3.20;75.93;101155.13;5099192;27;45399;-45
2023/01/20 02:24:32;;;;;;;;;27.25;23.00;;;;;3.13;75.72;101145.88;5099472;27;45313;-47
2023/01/20 02:27:07;;;;;;;;;24.25;21.00;;;;;3.08;76.01;101150.56;4995831;28;45425;-49
2023/01/20 02:29:59;;;;;;;;;26.25;24.25;;;;;3.03;76.01;101149.97;4996481;28;45393;-49
2023/01/20 02:32:48;;;;;;;;;34.50;20.50;;;;;2.99;77.05;101154.56;4995997;28;45504;-45
2023/01/20 02:35:31;;;;;;;;;21.00;19.00;;;;;2.95;77.34;101155.69;4996458;28;45434;-49
2023/01/20 02:38:11;;;;;;;;;23.25;20.00;;;;;3.03;77.42;101159.63;4995926;28;46608;-47
2023/01/20 02:40:49;;;;;;;;;19.50;16.00;;;;;3.08;77.59;101160.22;4996192;28;45477;-49
2023/01/20 02:43:43;;;;;;;;;26.00;19.50;;;;;3.13;77.16;101163.44;4996165;28;45436;-49
2023/01/20 02:46:19;;;;;;;;;26.00;25.25;;;;;3.21;76.77;101180.47;4996328;28;45593;-49
2023/01/20 02:48:54;;;;;;;;;32.00;24.00;;;;;3.26;76.87;101172.31;4995924;28;46234;-45
2023/01/20 02:51:28;;;;;;;;;27.00;21.00;;;;;3.36;76.52;101173.44;4996117;28;46124;-45
2023/01/20 02:53:59;;;;;;;;;30.00;22.75;;;;;3.36;76.83;101162.09;4995896;28;45491;-44
2023/01/20 02:56:28;;;;;;;;;31.75;24.25;;;;;3.44;76.46;101168.59;4996165;28;45393;-46
2023/01/20 02:59:12;;;;;;;;;24.25;14.75;;;;;3.55;76.65;101177.66;4995391;28;46222;-49
2023/01/20 03:01:47;;;;;;;;;26.50;21.50;;;;;3.49;76.17;101163.03;4995079;28;45456;-45
2023/01/20 03:04:17;;;;;;;;;44.25;27.00;;;;;3.63;76.09;101192.03;5052596;27;45448;-46
2023/01/20 03:06:48;;;;;;;;;27.25;17.00;;;;;3.64;75.73;101198.13;5099043;27;45337;-46
2023/01/20 03:09:20;;;;;;;;;28.00;23.75;;;;;3.63;75.67;101197.28;5098526;27;46362;-45
2023/01/20 03:11:52;;;;;;;;;34.50;20.75;;;;;3.62;75.50;101187.69;5098303;27;45258;-45
2023/01/20 03:14:17;;;;;;;;;35.25;26.75;;;;;3.63;75.96;101191.19;5097611;27;45364;-48
2023/01/20 03:16:46;;;;;;;;;27.25;24.50;;;;;3.55;76.00;101196.06;5098454;27;45178;-46
2023/01/20 03:19:13;;;;;;;;;37.50;23.50;;;;;3.47;76.18;101207.88;5098142;27;46354;-46
2023/01/20 03:21:39;;;;;;;;;25.75;20.50;;;;;3.41;75.75;101215.25;5098398;27;45335;-46
2023/01/20 03:24:05;;;;;;;;;32.00;27.75;;;;;3.41;75.48;101218.75;5098284;27;45335;-45
2023/01/20 03:26:31;;;;;;;;;28.25;22.00;;;;;3.39;76.69;101225.88;5098785;27;45399;-44
2023/01/20 03:28:56;;;;;;;;;33.75;17.25;;;;;3.31;75.83;101209.69;5098054;27;45816;-46
2023/01/20 03:31:47;;;;;;;;;25.25;18.25;;;;;3.37;76.55;101213.72;5098116;27;45437;-45
2023/01/20 03:34:17;;;;;;;;;25.25;16.25;;;;;3.27;76.20;101202.06;5098139;27;45462;-46
2023/01/20 03:36:44;;;;;;;;;23.75;19.50;;;;;3.37;75.65;101222.50;5098435;27;45247;-45
2023/01/20 03:39:10;;;;;;;;;31.25;19.75;;;;;3.36;75.71;101219.94;5097963;27;46235;-46
2023/01/20 03:42:09;;;;;;;;;23.00;18.75;;;;;3.42;75.52;101220.44;5098218;27;45365;-49
2023/01/20 03:44:46;;;;;;;;;21.25;17.00;;;;;3.47;75.56;101228.06;5096671;27;45391;-45
2023/01/20 03:47:19;;;;;;;;;27.50;20.50;;;;;3.52;76.42;101239.16;5098003;27;45443;-46
2023/01/20 03:49:54;;;;;;;;;23.00;19.00;;;;;3.57;76.35;101233.63;5098010;27;47146;-47
2023/01/20 03:52:55;;;;;;;;;24.25;18.50;;;;;3.60;75.33;101242.19;5097910;27;46002;-46
2023/01/20 03:55:30;;;;;;;;;25.00;16.00;;;;;3.60;75.37;101239.56;5097424;27;45280;-45
2023/01/20 03:58:02;;;;;;;;;16.75;16.25;;;;;3.56;75.66;101237.19;5097926;27;45228;-45
2023/01/20 04:00:32;;;;;;;;;18.25;15.25;;;;;3.42;74.78;101230.97;5097626;27;46237;-46
2023/01/20 04:03:00;;;;;;;;;32.25;22.75;;;;;3.45;75.63;101240.44;5097406;27;45450;-46
2023/01/20 04:05:27;;;;;;;;;28.25;17.75;;;;;3.36;75.32;101238.34;5097724;27;45399;-44
2023/01/20 04:07:56;;;;;;;;;17.75;16.00;;;;;3.28;75.46;101248.44;5097747;27;45508;-46
2023/01/20 04:10:26;;;;;;;;;29.50;20.00;;;;;3.24;75.27;101250.41;5096428;27;46457;-45
2023/01/20 04:12:51;;;;;;;;;20.50;13.50;;;;;3.22;76.02;101253.13;5097385;27;45432;-45
2023/01/20 04:15:18;;;;;;;;;26.25;17.00;;;;;3.20;75.72;101252.38;5097576;27;45328;-47
2023/01/20 04:17:44;;;;;;;;;24.50;18.00;;;;;3.29;75.84;101263.28;5097774;27;45271;-47
2023/01/20 04:20:13;;;;;;;;;25.25;19.00;;;;;3.19;76.28;101248.03;5097286;27;45985;-47
2023/01/20 04:22:57;;;;;;;;;32.25;20.50;;;;;3.33;75.59;101267.44;5097158;27;45313;-45
2023/01/20 04:25:27;;;;;;;;;27.75;22.75;;;;;3.37;75.68;101274.22;5097175;27;45312;-44
2023/01/20 04:27:52;;;;;;;;;24.50;18.50;;;;;3.40;76.26;101279.31;5097317;27;45442;-46
2023/01/20 04:30:18;;;;;;;;;29.00;19.50;;;;;3.42;75.81;101273.03;5098269;27;45426;-44
2023/01/20 04:32:43;;;;;;;;;18.25;17.00;;;;;3.43;75.63;101277.34;5098485;27;45390;-46
2023/01/20 04:35:13;;;;;;;;;38.75;22.00;;;;;3.43;75.20;101285.25;5097204;27;45403;-45
2023/01/20 04:37:38;;;;;;;;;21.00;16.75;;;;;3.43;76.07;101284.41;5097110;27;45386;-46
2023/01/20 04:40:04;;;;;;;;;24.50;17.75;;;;;3.42;75.04;101288.81;5097279;27;45905;-44
2023/01/20 04:42:29;;;;;;;;;26.00;17.00;;;;;3.35;75.83;101287.47;5096711;27;45371;-44
2023/01/20 04:44:54;;;;;;;;;26.00;19.50;;;;;3.28;75.26;101299.25;5096265;27;45835;-48
2023/01/20 04:47:20;;;;;;;;;26.00;15.25;;;;;3.21;75.08;101296.13;5096944;27;45488;-46
2023/01/20 04:49:45;;;;;;;;;24.25;15.50;;;;;3.17;75.20;101297.25;5096552;27;46180;-44
2023/01/20 04:52:10;;;;;;;;;29.00;20.00;;;;;3.15;75.50;101291.22;5096954;27;45323;-45
2023/01/20 04:54:36;;;;;;;;;22.25;16.00;;;;;3.13;75.28;101294.88;5096799;27;45475;-45
2023/01/20 04:57:01;;;;;;;;;19.75;13.50;;;;;3.20;75.82;101299.72;5097142;27;45375;-47
2023/01/20 04:59:26;;;;;;;;;21.50;13.50;;;;;3.22;75.97;101308.34;5096588;27;45994;-44
2023/01/20 05:01:52;;;;;;;;;26.00;15.75;;;;;3.25;75.65;101310.81;5096570;27;47539;-44
2023/01/20 05:04:17;;;;;;;;;26.00;22.25;;;;;3.27;75.97;101317.75;5096569;27;45433;-45
2023/01/20 05:06:43;;;;;;;;;19.75;18.00;;;;;3.16;75.88;101292.06;5096996;27;45427;-44
2023/01/20 05:09:14;;;;;;;;;23.00;18.25;;;;;3.30;75.50;101314.97;5096375;27;46252;-46
2023/01/20 05:11:40;;;;;;;;;21.00;19.00;;;;;3.20;75.95;101291.81;5096869;27;45379;-44
2023/01/20 05:14:05;;;;;;;;;29.50;16.50;;;;;3.29;75.62;101314.13;5096785;27;45401;-46
2023/01/20 05:16:32;;;;;;;;;29.00;20.50;;;;;3.27;75.32;101312.50;5096777;27;45504;-46
2023/01/20 05:18:58;;;;;;;;;26.50;20.00;;;;;3.27;75.48;101320.38;5095732;27;46336;-45
2023/01/20 05:21:23;;;;;;;;;21.75;17.50;;;;;3.21;75.89;101318.97;5096276;27;45303;-45
2023/01/20 05:23:48;;;;;;;;;26.75;21.00;;;;;3.19;75.65;101333.94;5096886;27;45705;-47
2023/01/20 05:26:14;;;;;;;;;20.25;19.75;;;;;3.17;75.46;101334.06;5096552;27;45364;-46
2023/01/20 05:28:41;;;;;;;;;27.25;21.00;;;;;3.17;76.05;101339.31;5096245;27;46151;-45
2023/01/20 05:31:07;;;;;;;;;31.00;21.50;;;;;3.14;75.61;101339.47;5096298;27;45443;-49
2023/01/20 05:33:32;;;;;;;;;22.50;16.75;;;;;3.06;75.27;101335.56;5096336;27;45353;-46
2023/01/20 05:35:57;;;;;;;;;25.25;19.50;;;;;3.11;75.49;101347.50;5096317;27;45674;-47
2023/01/20 05:38:23;;;;;;;;;28.75;19.50;;;;;3.09;75.18;101346.75;5095811;27;47084;-46
2023/01/20 05:40:48;;;;;;;;;21.75;15.00;;;;;3.09;75.68;101341.50;5096382;27;45359;-45
2023/01/20 05:43:13;;;;;;;;;29.75;24.50;;;;;3.06;75.86;101348.72;5095013;27;45320;-47
2023/01/20 05:45:39;;;;;;;;;30.75;21.50;;;;;3.11;75.40;101352.78;5096160;27;45348;-44
2023/01/20 05:48:05;;;;;;;;;29.75;20.00;;;;;3.13;75.77;101352.72;5095102;27;45488;-44
2023/01/20 05:50:30;;;;;;;;;29.50;25.50;;;;;3.04;75.19;101329.56;5095847;27;45407;-43
2023/01/20 05:52:55;;;;;;;;;26.00;23.25;;;;;3.11;75.16;101352.78;5096168;27;45446;-46
2023/01/20 05:55:21;;;;;;;;;30.00;20.50;;;;;3.08;75.17;101363.47;5096236;27;45494;-43
2023/01/20 05:57:46;;;;;;;;;31.00;23.75;;;;;3.06;75.57;101362.69;5095855;27;46771;-47
2023/01/20 06:00:13;;;;;;;;;35.00;26.00;;;;;2.94;74.78;101343.16;5095951;27;45458;-45
2023/01/20 06:02:39;;;;;;;;;39.00;24.50;;;;;2.96;75.04;101354.47;5095877;27;45234;-44
2023/01/20 06:05:05;;;;;;;;;26.25;18.75;;;;;3.04;74.64;101363.72;5096002;27;45392;-43
2023/01/20 06:07:30;;;;;;;;;25.00;18.75;;;;;3.05;75.19;101368.03;5095636;27;46066;-45
2023/01/20 06:09:56;;;;;;;;;26.25;23.00;;;;;2.93;75.60;101344.13;5095826;27;45328;-46
2023/01/20 06:12:22;;;;;;;;;27.25;22.75;;;;;2.95;75.30;101351.91;5095932;27;45535;-48
2023/01/20 06:14:48;;;;;;;;;34.00;25.50;;;;;2.98;75.32;101364.88;5096030;27;45433;-45
2023/01/20 06:17:13;;;;;;;;;27.50;21.75;;;;;2.98;74.73;101370.97;5095106;27;45430;-48
2023/01/20 06:19:38;;;;;;;;;34.25;21.25;;;;;2.94;75.17;101372.09;5095206;27;51604;-44
2023/01/20 06:22:05;;;;;;;;;25.25;22.50;;;;;2.86;75.25;101362.91;5095582;27;46794;-46
2023/01/20 06:24:31;;;;;;;;;27.50;21.75;;;;;2.95;74.94;101378.19;5095810;27;45333;-45
2023/01/20 06:26:56;;;;;;;;;33.00;21.00;;;;;2.91;75.19;101374.06;5095471;27;45465;-44
2023/01/20 06:29:21;;;;;;;;;31.50;25.50;;;;;2.92;75.48;101373.13;5095626;27;45760;-45
2023/01/20 06:31:46;;;;;;;;;30.25;22.25;;;;;2.95;75.05;101375.56;5095712;27;45474;-43
2023/01/20 06:34:12;;;;;;;;;34.50;21.50;;;;;2.96;74.82;101380.75;5097486;27;45321;-49
2023/01/20 06:36:38;;;;;;;;;38.75;26.00;;;;;2.78;74.81;101357.22;5098702;27;45362;-46
2023/01/20 06:39:03;;;;;;;;;27.50;27.50;;;;;2.88;75.58;101382.09;5098900;27;45838;-45
2023/01/20 06:41:29;;;;;;;;;22.25;21.00;;;;;2.85;74.96;101372.56;5099161;27;45224;-45
2023/01/20 06:43:54;;;;;;;;;23.75;19.75;;;;;2.82;75.27;101367.47;5098178;27;45225;-48
2023/01/20 06:46:19;;;;;;;;;22.75;20.25;;;;;2.72;75.11;101389.94;5098478;27;46299;-50
2023/01/20 06:48:45;;;;;;;;;29.50;26.00;;;;;2.66;75.88;101383.22;5099027;27;45443;-50
2023/01/20 06:51:15;;;;;;;;;22.00;20.00;;;;;2.61;75.69;101395.75;5098787;27;45417;-46
2023/01/20 06:53:41;;;;;;;;;22.50;18.00;;;;;2.62;76.34;101397.44;5099113;27;45325;-48
2023/01/20 06:56:08;;;;;;;;;27.25;18.25;;;;;2.65;76.72;101407.78;5098791;27;45304;-45
2023/01/20 06:58:33;;;;;;;;;27.25;21.00;;;;;2.67;75.77;101405.94;5098638;27;45456;-50
2023/01/20 07:01:07;;;;;;;;;30.50;24.50;;;;;2.58;75.77;101385.41;5098703;27;45405;-46
2023/01/20 07:03:33;;;;;;;;;32.75;24.25;;;;;2.64;75.75;101400.81;5098811;27;45352;-49
2023/01/20 07:06:02;;;;;;;;;35.50;24.50;;;;;2.66;75.65;101409.50;5098323;27;46097;-45
2023/01/20 07:08:28;;;;;;;;;28.00;23.50;;;;;2.54;75.76;101406.66;5098418;27;45435;-46
2023/01/20 07:10:55;;;;;;;;;26.75;23.75;;;;;2.56;75.95;101421.38;5098657;27;45470;-49
2023/01/20 07:13:20;;;;;;;;;27.50;21.25;;;;;2.56;75.66;101431.88;5098861;27;45438;-48
2023/01/20 07:15:45;;;;;;;;;33.25;24.00;;;;;2.56;75.91;101424.00;5098147;27;50099;-46
2023/01/20 07:18:10;;;;;;;;;22.25;19.25;;;;;2.59;75.80;101441.41;5098435;27;45461;-46
2023/01/20 07:20:37;;;;;;;;;32.75;21.50;;;;;2.57;75.87;101431.00;5099634;27;45384;-49
2023/01/20 07:23:03;;;;;;;;;33.25;21.75;;;;;2.52;76.21;101438.22;5099078;27;45465;-48
2023/01/20 07:25:29;;;;;;;;;28.00;23.50;;;;;2.37;75.16;101418.03;5098139;27;46039;-47
2023/01/20 07:27:56;;;;;;;;;23.00;18.75;;;;;2.51;75.79;101441.78;5098175;27;45289;-50
2023/01/20 07:30:22;;;;;;;;;36.75;24.00;;;;;2.50;76.23;101446.19;5098441;27;46003;-50
2023/01/20 07:32:47;;;;;;;;;29.75;21.50;;;;;2.50;76.06;101446.19;5098407;27;45471;-48
2023/01/20 07:35:12;;;;;;;;;38.00;29.25;;;;;2.53;75.99;101453.09;5096385;27;53281;-47
2023/01/20 07:37:38;;;;;;;;;31.75;25.00;;;;;2.52;75.97;101448.72;5097863;27;45502;-46
2023/01/20 07:40:04;;;;;;;;;33.75;27.25;;;;;2.56;75.62;101462.56;5098024;27;45267;-48
2023/01/20 07:42:29;;;;;;;;;41.00;24.50;;;;;2.57;75.66;101467.75;5097973;27;45647;-49
2023/01/20 07:44:54;;;;;;;;;34.50;28.25;;;;;2.14;75.73;101396.38;5097879;27;45992;-50
2023/01/20 07:47:20;;;;;;;;;40.00;28.25;;;;;2.58;75.73;101469.44;5097790;27;45271;-46
2023/01/20 07:49:45;;;;;;;;;36.00;31.00;;;;;2.55;75.58;101471.38;5097570;27;45485;-45
2023/01/20 07:52:10;;;;;;;;;38.50;27.25;;;;;2.53;75.41;101460.97;5097521;27;45285;-46
2023/01/20 07:54:35;;;;;;;;;42.50;25.50;;;;;2.56;75.33;101475.69;5096849;27;49374;-46
2023/01/20 07:57:01;;;;;;;;;37.75;27.25;;;;;2.56;75.74;101470.44;5097753;27;45358;-47
2023/01/20 07:59:27;;;;;;;;;32.50;24.75;;;;;2.65;75.63;101486.56;5097897;27;45379;-47
2023/01/20 08:01:53;;;;;;;;;40.50;27.75;;;;;2.69;75.33;101476.78;5096087;27;45365;-44
2023/01/20 08:04:18;;;;;;;;;27.75;24.50;;;;;2.75;75.53;101482.56;5096451;27;46176;-43
2023/01/20 08:06:44;;;;;;;;;28.50;22.50;;;;;2.81;75.20;101477.94;5094060;27;45437;-45
2023/01/20 08:09:11;;;;;;;;;28.75;23.50;;;;;2.78;75.28;101464.94;5094714;27;45330;-44
2023/01/20 08:11:37;;;;;;;;;32.00;25.50;;;;;2.85;74.41;101482.09;5094270;27;45539;-46
2023/01/20 08:14:02;;;;;;;;;25.00;23.00;;;;;2.85;75.15;101482.09;5094603;27;46431;-48
2023/01/20 08:16:27;;;;;;;;;40.75;26.25;;;;;2.88;74.76;101489.84;5094478;27;45506;-47
2023/01/20 08:18:53;;;;;;;;;35.25;28.25;;;;;2.91;74.92;101487.06;5094298;27;46005;-47
2023/01/20 08:21:21;;;;;;;;;32.75;22.75;;;;;2.91;74.03;101493.16;5094713;27;45485;-49
2023/01/20 08:23:47;;;;;;;;;30.50;22.25;;;;;2.86;74.00;101468.03;5094165;27;47237;-49
2023/01/20 08:26:13;;;;;;;;;40.00;29.75;;;;;2.90;73.94;101469.56;5093901;27;45541;-47
2023/01/20 08:28:38;;;;;;;;;32.00;24.75;;;;;3.05;73.88;101491.59;5094339;27;45537;-48
2023/01/20 08:31:11;;;;;;;;;29.00;24.25;;;;;3.09;74.60;101501.00;5094410;27;45967;-44
2023/01/20 08:33:38;;;;;;;;;39.50;23.75;;;;;3.15;74.17;101495.41;5091719;27;45573;-49
2023/01/20 08:36:09;;;;;;;;;28.75;23.00;;;;;3.23;73.72;101495.88;5093889;27;45493;-45
2023/01/20 08:38:35;;;;;;;;;22.50;17.75;;;;;3.30;73.37;101499.88;5094125;27;45410;-48
2023/01/20 08:41:01;;;;;;;;;28.75;25.25;;;;;3.30;73.21;101497.25;5094156;27;45410;-47
2023/01/20 08:43:26;;;;;;;;;27.25;25.00;;;;;3.36;72.79;101510.06;5093517;27;45526;-49
2023/01/20 08:46:03;;;;;;;;;40.00;25.00;;;;;3.28;73.15;101488.56;5093920;27;45489;-48
2023/01/20 08:48:28;;;;;;;;;36.00;27.25;;;;;3.32;73.12;101482.22;5093291;27;45754;-45
2023/01/20 08:50:54;;;;;;;;;29.75;28.00;;;;;3.50;72.54;101512.81;5093960;27;45633;-46
2023/01/20 08:53:19;;;;;;;;;19.00;19.00;;;;;3.59;71.93;101510.63;5093726;27;46293;-45
2023/01/20 08:55:53;;;;;;;;;30.50;25.25;;;;;3.68;72.90;101504.84;5092867;27;45482;-53
2023/01/20 08:58:19;;;;;;;;;23.25;20.75;;;;;3.77;71.85;101509.63;5093679;27;45551;-45
2023/01/20 09:00:44;;;;;;;;;33.50;20.50;;;;;3.80;71.71;101501.56;5092575;27;45442;-48
2023/01/20 09:03:11;;;;;;;;;28.00;21.50;;;;;3.81;70.83;101497.13;5093568;27;46224;-47
2023/01/20 09:05:36;;;;;;;;;29.00;19.25;;;;;3.88;71.07;101504.63;5092930;27;45602;-45
2023/01/20 09:08:02;;;;;;;;;28.25;22.75;;;;;3.89;71.04;101501.03;5093505;27;45482;-45
2023/01/20 09:10:27;;;;;;;;;21.25;21.25;;;;;3.98;71.62;101502.31;5075659;27;45481;-48
2023/01/20 09:12:52;;;;;;;;;24.75;19.75;;;;;4.10;70.31;101513.94;5093076;27;45473;-45
2023/01/20 09:15:19;;;;;;;;;26.75;20.00;;;;;4.13;71.06;101521.66;5093294;27;45443;-47
2023/01/20 09:17:44;;;;;;;;;27.25;18.00;;;;;4.15;70.21;101523.28;5092783;27;46026;-46
2023/01/20 09:20:10;;;;;;;;;35.75;27.50;;;;;4.29;70.68;101526.91;5093569;27;45409;-45
2023/01/20 09:22:36;;;;;;;;;26.25;20.50;;;;;4.49;70.50;101529.25;5093126;27;47214;-48
2023/01/20 09:25:01;;;;;;;;;22.25;19.00;;;;;4.74;69.80;101524.25;5092901;27;46482;-44
2023/01/20 09:27:26;;;;;;;;;24.25;21.00;;;;;5.11;69.35;101518.59;5092931;27;45887;-47
2023/01/20 09:29:52;;;;;;;;;24.50;19.50;;;;;5.59;68.72;101537.63;5093070;27;45498;-45
2023/01/20 09:32:17;;;;;;;;;25.50;19.75;;;;;6.05;67.45;101535.63;5092493;27;46188;-44
2023/01/20 09:34:42;;;;;;;;;17.00;16.25;;;;;7.85;64.60;101535.75;5092899;27;45566;-45
2023/01/20 09:45:41;;;;;;;;;16.75;11.00;;;;;6.92;63.45;101536.97;5093606;27;45410;-47
2023/01/20 09:54:32;;;;;;;;;12.75;10.25;;;;;6.31;66.03;101541.84;5092338;27;45744;-46
2023/01/20 09:57:01;;;;;;;;;15.50;11.50;;;;;6.16;65.63;101542.88;5009664;28;45565;-47
2023/01/20 09:59:33;;;;;;;;;17.25;13.25;;;;;6.03;66.27;101549.88;5010013;28;45517;-50
2023/01/20 10:02:04;;;;;;;;;14.00;11.00;;;;;5.99;66.67;101551.88;5009981;28;45565;-48
2023/01/20 10:04:42;;;;;;;;;8.00;8.00;;;;;5.99;66.62;101551.88;5009249;28;47131;-47
2023/01/20 10:07:19;;;;;;;;;12.25;10.75;;;;;5.98;66.31;101545.75;5009553;28;46482;-50
2023/01/20 10:10:01;;;;;;;;;15.50;12.00;;;;;5.97;67.12;101551.09;5012375;28;45536;-46
2023/01/20 10:12:36;;;;;;;;;14.00;10.50;;;;;5.95;67.16;101555.66;5016552;28;45463;-49
2023/01/20 10:15:18;;;;;;;;;12.00;11.00;;;;;5.92;67.10;101547.91;5016411;28;45401;-47
2023/01/20 10:18:08;;;;;;;;;11.50;10.50;;;;;5.91;67.55;101548.84;5016201;28;45407;-47
2023/01/20 10:21:10;;;;;;;;;14.75;11.25;;;;;5.89;67.28;101551.56;5016328;28;45323;-47
2023/01/20 10:23:59;;;;;;;;;12.00;10.50;;;;;5.89;67.74;101558.63;5016635;28;45524;-47
2023/01/20 10:26:31;;;;;;;;;22.00;11.00;;;;;5.85;67.73;101549.19;5015314;28;46490;-48
2023/01/20 10:29:02;;;;;;;;;11.25;9.00;;;;;5.92;67.79;101545.28;5016202;28;45539;-46
2023/01/20 10:31:32;;;;;;;;;10.75;7.25;;;;;6.04;67.74;101554.22;5022279;27;45357;-45
2023/01/20 10:34:05;;;;;;;;;8.00;6.50;;;;;6.15;67.86;101555.22;5098215;27;45482;-45
2023/01/20 10:36:33;;;;;;;;;11.00;8.75;;;;;6.28;67.64;101557.94;5080211;27;46031;-47
2023/01/20 10:39:12;;;;;;;;;7.75;5.75;;;;;6.38;67.41;101551.09;5099078;27;45435;-43
2023/01/20 10:41:44;;;;;;;;;7.50;6.25;;;;;6.30;67.13;101552.53;5099211;27;45473;-48
2023/01/20 10:44:12;;;;;;;;;13.25;11.00;;;;;6.33;67.28;101555.00;5099193;27;45463;-46
2023/01/20 10:46:47;;;;;;;;;12.75;11.75;;;;;6.53;67.04;101545.75;5098562;27;47034;-45
2023/01/20 10:49:40;;;;;;;;;16.25;10.75;;;;;6.74;66.47;101557.53;5098916;27;45428;-46
2023/01/20 10:53:07;;;;;;;;;11.50;9.25;;;;;7.12;66.49;101551.47;5097564;27;46029;-45
2023/01/20 10:55:35;;;;;;;;;15.00;11.00;;;;;7.42;64.83;101546.72;4937686;28;45544;-47
2023/01/20 10:58:11;;;;;;;;;8.25;8.25;;;;;7.67;65.22;101555.59;4937717;28;47381;-45
2023/01/20 11:00:38;;;;;;;;;5.25;5.00;;;;;7.77;63.83;101550.50;4937381;28;45474;-46
2023/01/20 11:03:05;;;;;;;;;10.75;6.50;;;;;7.94;63.35;101550.13;4937241;28;45361;-48
2023/01/20 11:05:40;;;;;;;;;14.00;9.50;;;;;8.24;61.39;101553.22;4937638;28;45814;-47
2023/01/20 11:08:14;;;;;;;;;11.50;8.25;;;;;8.29;61.60;101541.44;4936974;28;46292;-49
2023/01/20 11:10:40;;;;;;;;;10.00;8.50;;;;;8.22;61.11;101549.84;4937164;28;45373;-45
2023/01/20 11:13:09;;;;;;;;;8.75;6.00;;;;;8.15;61.33;101538.00;4936096;28;45373;-44
2023/01/20 11:15:40;;;;;;;;;12.00;9.00;;;;;8.22;60.58;101549.84;4935758;28;45390;-47
2023/01/20 11:18:14;;;;;;;;;7.00;6.00;;;;;8.41;60.52;101549.38;4936795;28;46363;-45
2023/01/20 11:20:53;;;;;;;;;8.75;8.50;;;;;8.45;60.87;101548.19;4936715;28;45377;-45
2023/01/20 11:23:31;;;;;;;;;8.75;6.00;;;;;8.71;59.63;101543.59;4936724;28;45576;-44
2023/01/20 11:26:00;;;;;;;;;9.50;8.50;;;;;9.12;59.06;101549.38;4937390;28;45385;-45
2023/01/20 11:28:27;;;;;;;;;17.00;8.50;;;;;9.13;57.72;101553.72;4936638;28;46113;-46
2023/01/20 11:30:55;;;;;;;;;9.25;8.25;;;;;8.83;58.69;101551.59;4975511;28;46096;-46
2023/01/20 11:33:24;;;;;;;;;15.25;9.75;;;;;8.48;58.61;101553.25;5077441;28;45226;-47
2023/01/20 11:36:05;;;;;;;;;12.50;12.00;;;;;8.39;59.17;101546.00;5077552;28;45432;-46
2023/01/20 11:38:43;;;;;;;;;14.00;10.00;;;;;8.83;60.07;101538.31;5059284;28;46225;-49
2023/01/20 11:41:29;;;;;;;;;16.25;13.00;;;;;9.25;58.73;101542.16;5077421;28;45529;-46
2023/01/20 11:43:59;;;;;;;;;13.75;9.75;;;;;9.74;58.61;101533.84;5077706;28;45408;-45